Ballymahon, Ireland
Current Conditions -  °F | °C
As of 10:00 AM on Thursday 23 Oct 2014 (Local Time) from EIKN Reporting Station
Drizzle Drizzle  
Wind Chill: 54°   Ceiling: 300
Heat Index: 54°   Visibility: 6mi
Dew Point: 52°   Wind: 16mph
Humidity: 94%   Direction: 210°SSW
Pressure: 29.83"   Gusts: NA
Location:  53.56°N, 7.77°W
Report Text: EIKN 231000Z 21014KT 180V240 9999 -DZ BKN003 OVC007 12/11 Q1010 NOSIG
Loading
Personal Weather Stations






























Interactive Weather Map New forecast layout! Learn more

10-Day Weather Forecast

Advertisements
Track Severe Weather on mobile